Estación Meteorológica Peña el Pijo (Robertgarden) [ 02/03/23 03:45:33 CET ]

Fecha Hora Presion(HPa) Temp (°C) Humedad % Rocio (°C) Viento ( m/s) Direccion Lluvia 1Hora(mm) Lluvia 24H(mm) LLuvia Total(mm)
2012-Jan-22 01:01:14 1016.300 -1.4 85 -3.6         151.25
2012-Jan-22 02:03:20 1016.000 -1.9 87 -3.8         151.25
2012-Jan-22 03:01:12 1015.700 -1.8 88 -3.5         151.25
2012-Jan-22 04:01:12 1015.300 -2.4 88 -4.1         151.25
2012-Jan-22 05:01:12 1014.600 -2.2 89 -3.8         151.25
2012-Jan-22 06:01:13 1014.200 -2.6 89 -4.2         151.25
2012-Jan-22 07:01:16 1014.000 -2.6 89 -4.2         151.25
2012-Jan-22 08:01:13 1013.800 -2.6 89 -4.2         151.25
2012-Jan-22 09:01:14 1013.700 -2.7 90 -4.1         151.25
2012-Jan-22 10:01:17 1013.900 1.8 88 -0.0         151.25
2012-Jan-22 11:01:17 1013.800 6.9 67 1.2         151.25
2012-Jan-22 12:01:13 1013.400 11.2 50 1.2         151.25
2012-Jan-22 13:01:13 1012.200 14.7 37 0.1         151.25
2012-Jan-22 14:01:11 1011.300 15.8 34 -0.2         151.25
2012-Jan-22 15:01:13 1010.600 15.4 31 -1.7         151.25
2012-Jan-22 16:01:14 1010.100 16.4 33 -0.0         151.25
2012-Jan-22 17:01:14 1010.100 12.8 38 -1.3         151.25
2012-Jan-22 18:01:16 1010.100 10.6 43 -1.5         151.25
2012-Jan-22 19:01:11 1010.600 7.1 53 -1.9         151.25
2012-Jan-22 20:01:12 1011.000 3.9 61 -3.0         151.25
2012-Jan-22 21:01:18 1011.100 2.2 72 -2.3         151.25
2012-Jan-22 22:01:14 1011.200 1.9 76 -1.9         151.25
2012-Jan-22 23:01:14 1011.400 0.9 79 -2.4         151.25

Temperatura Máxima:16°    Temperatura Mínima:-2°
Presión Máxima:1016.300 Hpa    Presión Mínima:1010.100 Hpa


Volver